Time;durP1;ratioP1;P1;durP2;ratioP2;P2;SDS_P1;SDS_P2;PMS_P1;PMS_P2;Temp;Humidity;BMP_temperature;BMP_pressure;BME280_temperature;BME280_humidity;BME280_pressure;Samples;Min_cycle;Max_cycle;Signal;HPM_P1;HPM_P2
2021/04/19 00:00:10;;;;;;;;;;;;;;;;;;5108514;28;1901;-57
2021/04/19 00:02:35;;;;;;;;;;;;;;;;;;5108663;28;818;-58
2021/04/19 00:05:01;;;;;;;;;;;;;;;;;;5108402;28;818;-58
2021/04/19 00:07:26;;;;;;;;;;;;;;;;;;5108676;28;854;-58
2021/04/19 00:09:52;;;;;;;;;;;;;;;;;;5109839;28;890;-58
2021/04/19 00:12:18;;;;;;;;;;;;;;;;;;5109194;28;849;-57
2021/04/19 00:14:45;;;;;;;;;;;;;;;;;;5108552;28;1015;-58
2021/04/19 00:17:11;;;;;;;;;;;;;;;;;;5107073;28;1397;-57
2021/04/19 00:19:36;;;;;;;;;;;;;;;;;;5108024;28;1979;-58
2021/04/19 00:22:01;;;;;;;;;;;;;;;;;;5107403;28;941;-58
2021/04/19 00:24:27;;;;;;;;;;;;;;;;;;5107280;28;826;-58
2021/04/19 00:26:52;;;;;;;;;;;;;;;;;;5108167;28;830;-59
2021/04/19 00:29:17;;;;;;;;;;;;;;;;;;5106779;28;893;-58
2021/04/19 00:31:43;;;;;;;;;;;;;;;;;;5107269;28;829;-57
2021/04/19 00:34:08;;;;;;;;;;;;;;;;;;5106409;28;866;-58
2021/04/19 00:36:34;;;;;;;;;;;;;;;;;;5107703;28;739;-58
2021/04/19 00:38:59;;;;;;;;;;;;;;;;;;5107622;28;1889;-58
2021/04/19 00:41:25;;;;;;;;;;;;;;;;;;5107701;28;798;-57
2021/04/19 00:43:50;;;;;;;;;;;;;;;;;;5108114;28;825;-57
2021/04/19 00:46:15;;;;;;;;;;;;;;;;;;5107245;28;850;-58
2021/04/19 00:48:41;;;;;;;;;;;;;;;;;;5107192;28;869;-58
2021/04/19 00:51:06;;;;;;;;;;;;;;;;;;5107292;28;885;-58
2021/04/19 00:53:34;;;;;;;;;;;;;;;;;;5109939;28;802;-58
2021/04/19 00:55:59;;;;;;;;;;;;;;;;;;5107420;28;1035;-58
2021/04/19 00:58:26;;;;;;;;;;;;;;;;;;5107589;28;896;-58
2021/04/19 01:00:51;;;;;;;;;;;;;;;;;;5108465;28;1901;-58
2021/04/19 01:03:17;;;;;;;;;;;;;;;;;;5107771;28;1011;-58
2021/04/19 01:05:43;;;;;;;;;;;;;;;;;;5107124;28;885;-58
2021/04/19 01:08:09;;;;;;;;;;;;;;;;;;5107583;28;861;-58
2021/04/19 01:10:35;;;;;;;;;;;;;;;;;;5106957;28;837;-57
2021/04/19 01:13:00;;;;;;;;;;;;;;;;;;5105706;28;1057;-58
2021/04/19 01:15:26;;;;;;;;;;;;;;;;;;5106749;28;942;-57
2021/04/19 01:17:51;;;;;;;;;;;;;;;;;;5108053;28;889;-60
2021/04/19 01:20:20;;;;;;;;;;;;;;;;;;5094608;28;1885;-58
2021/04/19 01:22:45;;;;;;;;;;;;;;;;;;5106756;28;786;-58
2021/04/19 01:25:13;;;;;;;;;;;;;;;;;;5106764;28;826;-59
2021/04/19 01:27:39;;;;;;;;;;;;;;;;;;5106867;28;913;-59
2021/04/19 01:30:05;;;;;;;;;;;;;;;;;;5105150;28;949;-58
2021/04/19 01:32:30;;;;;;;;;;;;;;;;;;5106396;28;1114;-58
2021/04/19 01:34:55;;;;;;;;;;;;;;;;;;5106610;28;830;-60
2021/04/19 01:37:21;;;;;;;;;;;;;;;;;;5107544;28;790;-57
2021/04/19 01:39:46;;;;;;;;;;;;;;;;;;5104850;28;1894;-60
2021/04/19 01:42:12;;;;;;;;;;;;;;;;;;5106850;28;810;-60
2021/04/19 01:44:37;;;;;;;;;;;;;;;;;;5106288;28;818;-59
2021/04/19 01:47:03;;;;;;;;;;;;;;;;;;5106246;28;925;-58
2021/04/19 01:49:30;;;;;;;;;;;;;;;;;;5106316;28;806;-59
2021/04/19 01:51:55;;;;;;;;;;;;;;;;;;5106480;28;810;-58
2021/04/19 01:54:21;;;;;;;;;;;;;;;;;;5040015;28;1142;-59
2021/04/19 01:56:46;;;;;;;;;;;;;;;;;;5023081;28;862;-59
2021/04/19 01:59:12;;;;;;;;;;;;;;;;;;5022959;28;1898;-59
2021/04/19 02:01:42;;;;;;;;;;;;;;;;;;5024903;28;819;-58
2021/04/19 02:04:10;;;;;;;;;;;;;;;;;;5026750;28;897;-58
2021/04/19 02:06:35;;;;;;;;;;;;;;;;;;5027094;28;877;-58
2021/04/19 02:09:20;;;;;;;;;;;;;;;;;;5026572;28;831;-59
2021/04/19 02:11:54;;;;;;;;;;;;;;;;;;5026133;28;810;-60
2021/04/19 02:14:26;;;;;;;;;;;;;;;;;;5027134;28;826;-60
2021/04/19 02:16:58;;;;;;;;;;;;;;;;;;5027075;28;889;-59
2021/04/19 02:19:30;;;;;;;;;;;;;;;;;;5026100;28;1977;-59
2021/04/19 02:22:01;;;;;;;;;;;;;;;;;;5026192;28;870;-60
2021/04/19 02:24:29;;;;;;;;;;;;;;;;;;5026534;28;913;-59
2021/04/19 02:26:56;;;;;;;;;;;;;;;;;;5026003;28;885;-59
2021/04/19 02:29:33;;;;;;;;;;;;;;;;;;5026979;28;1005;-59
2021/04/19 02:32:01;;;;;;;;;;;;;;;;;;5027074;28;889;-60
2021/04/19 02:34:29;;;;;;;;;;;;;;;;;;5026044;28;806;-58
2021/04/19 02:36:56;;;;;;;;;;;;;;;;;;5025816;28;854;-57
2021/04/19 02:39:22;;;;;;;;;;;;;;;;;;5026605;28;1898;-58
2021/04/19 02:41:51;;;;;;;;;;;;;;;;;;5026937;28;794;-58
2021/04/19 02:44:20;;;;;;;;;;;;;;;;;;5026156;28;889;-57
2021/04/19 02:46:45;;;;;;;;;;;;;;;;;;5025622;28;834;-58
2021/04/19 02:49:12;;;;;;;;;;;;;;;;;;5025323;28;861;-58
2021/04/19 02:51:39;;;;;;;;;;;;;;;;;;5025964;28;815;-58
2021/04/19 02:54:05;;;;;;;;;;;;;;;;;;5086013;28;1165;-58
2021/04/19 02:56:33;;;;;;;;;;;;;;;;;;5111786;28;798;-58
2021/04/19 02:58:59;;;;;;;;;;;;;;;;;;5109816;28;1918;-60
2021/04/19 03:01:26;;;;;;;;;;;;;;;;;;5108620;28;822;-58
2021/04/19 03:03:53;;;;;;;;;;;;;;;;;;5109942;28;878;-60
2021/04/19 03:06:19;;;;;;;;;;;;;;;;;;5110436;28;849;-58
2021/04/19 03:08:49;;;;;;;;;;;;;;;;;;5109797;27;865;-58
2021/04/19 03:11:33;;;;;;;;;;;;;;;;;;5108771;28;862;-58
2021/04/19 03:14:01;;;;;;;;;;;;;;;;;;5109157;28;1005;-57
2021/04/19 03:16:28;;;;;;;;;;;;;;;;;;5109576;28;833;-58
2021/04/19 03:18:55;;;;;;;;;;;;;;;;;;5109103;28;1921;-58
2021/04/19 03:21:25;;;;;;;;;;;;;;;;;;5095521;28;1173;-58
2021/04/19 03:23:52;;;;;;;;;;;;;;;;;;5110285;28;811;-57
2021/04/19 03:26:18;;;;;;;;;;;;;;;;;;5109682;28;917;-58
2021/04/19 03:28:45;;;;;;;;;;;;;;;;;;5108968;28;921;-57
2021/04/19 03:31:14;;;;;;;;;;;;;;;;;;5108611;28;811;-57
2021/04/19 03:33:41;;;;;;;;;;;;;;;;;;5109055;28;929;-58
2021/04/19 03:36:07;;;;;;;;;;;;;;;;;;5108596;28;810;-58
2021/04/19 03:38:33;;;;;;;;;;;;;;;;;;5109161;28;822;-58
2021/04/19 03:41:00;;;;;;;;;;;;;;;;;;5108236;28;1971;-58
2021/04/19 03:43:26;;;;;;;;;;;;;;;;;;5044570;28;1273;-57
2021/04/19 03:45:54;;;;;;;;;;;;;;;;;;5005737;28;850;-58
2021/04/19 03:48:21;;;;;;;;;;;;;;;;;;5006838;28;812;-57
2021/04/19 03:50:49;;;;;;;;;;;;;;;;;;5004409;28;970;-59
2021/04/19 03:53:16;;;;;;;;;;;;;;;;;;5012702;28;1019;-57
2021/04/19 03:55:43;;;;;;;;;;;;;;;;;;5027993;28;835;-58
2021/04/19 03:58:09;;;;;;;;;;;;;;;;;;5025484;28;866;-57
2021/04/19 04:00:35;;;;;;;;;;;;;;;;;;5024450;28;1910;-58
2021/04/19 04:03:01;;;;;;;;;;;;;;;;;;5024985;28;870;-58
2021/04/19 04:05:27;;;;;;;;;;;;;;;;;;5024770;28;866;-58
2021/04/19 04:07:54;;;;;;;;;;;;;;;;;;5024320;28;928;-59
2021/04/19 04:10:20;;;;;;;;;;;;;;;;;;5025757;28;835;-58
2021/04/19 04:12:47;;;;;;;;;;;;;;;;;;5024833;28;787;-58
2021/04/19 04:15:12;;;;;;;;;;;;;;;;;;5024664;28;865;-59
2021/04/19 04:17:38;;;;;;;;;;;;;;;;;;5023449;28;891;-59
2021/04/19 04:20:04;;;;;;;;;;;;;;;;;;5024393;28;1894;-57
2021/04/19 04:22:29;;;;;;;;;;;;;;;;;;5024895;28;841;-59
2021/04/19 04:24:55;;;;;;;;;;;;;;;;;;5023763;28;842;-58
2021/04/19 04:27:21;;;;;;;;;;;;;;;;;;5025675;28;842;-58
2021/04/19 04:29:46;;;;;;;;;;;;;;;;;;5024147;28;802;-58
2021/04/19 04:32:12;;;;;;;;;;;;;;;;;;5024995;28;798;-58
2021/04/19 04:34:39;;;;;;;;;;;;;;;;;;5024305;28;889;-58
2021/04/19 04:37:04;;;;;;;;;;;;;;;;;;5024112;28;897;-59
2021/04/19 04:39:29;;;;;;;;;;;;;;;;;;5024524;28;1993;-57
2021/04/19 04:41:55;;;;;;;;;;;;;;;;;;5024062;28;929;-58
2021/04/19 04:44:24;;;;;;;;;;;;;;;;;;5024348;28;837;-58
2021/04/19 04:47:03;;;;;;;;;;;;;;;;;;5024546;28;822;-59
2021/04/19 04:49:32;;;;;;;;;;;;;;;;;;5024282;28;834;-58
2021/04/19 04:51:59;;;;;;;;;;;;;;;;;;5023980;28;910;-58
2021/04/19 04:54:24;;;;;;;;;;;;;;;;;;5095718;28;1153;-57
2021/04/19 04:56:55;;;;;;;;;;;;;;;;;;5108316;28;822;-58
2021/04/19 04:59:22;;;;;;;;;;;;;;;;;;5106646;28;1905;-58
2021/04/19 05:01:48;;;;;;;;;;;;;;;;;;5107946;28;838;-58
2021/04/19 05:04:14;;;;;;;;;;;;;;;;;;5107136;28;862;-58
2021/04/19 05:06:40;;;;;;;;;;;;;;;;;;5107533;28;810;-58
2021/04/19 05:09:08;;;;;;;;;;;;;;;;;;5107282;28;897;-59
2021/04/19 05:11:33;;;;;;;;;;;;;;;;;;5105765;28;842;-60
2021/04/19 05:14:00;;;;;;;;;;;;;;;;;;5107141;28;873;-60
2021/04/19 05:16:26;;;;;;;;;;;;;;;;;;5106588;28;901;-60
2021/04/19 05:18:51;;;;;;;;;;;;;;;;;;5106114;28;846;-60
2021/04/19 05:21:17;;;;;;;;;;;;;;;;;;5095627;28;1885;-59
2021/04/19 05:23:42;;;;;;;;;;;;;;;;;;5104351;28;1018;-60
2021/04/19 05:26:07;;;;;;;;;;;;;;;;;;5107231;27;936;-60
2021/04/19 05:28:33;;;;;;;;;;;;;;;;;;5019257;28;1250;-60
2021/04/19 05:30:58;;;;;;;;;;;;;;;;;;5003755;28;1213;-59
2021/04/19 05:33:24;;;;;;;;;;;;;;;;;;5003526;28;792;-59
2021/04/19 05:35:51;;;;;;;;;;;;;;;;;;5004421;28;838;-61
2021/04/19 05:38:17;;;;;;;;;;;;;;;;;;5004187;28;921;-60
2021/04/19 05:40:44;;;;;;;;;;;;;;;;;;5004048;28;1981;-61
2021/04/19 05:43:09;;;;;;;;;;;;;;;;;;5001464;28;1482;-59
2021/04/19 05:45:35;;;;;;;;;;;;;;;;;;4999493;28;1494;-59
2021/04/19 05:48:01;;;;;;;;;;;;;;;;;;4983978;28;878;-59
2021/04/19 05:50:26;;;;;;;;;;;;;;;;;;4982467;28;843;-59
2021/04/19 05:52:52;;;;;;;;;;;;;;;;;;4992305;28;1555;-61
2021/04/19 05:55:20;;;;;;;;;;;;;;;;;;5023733;28;795;-58
2021/04/19 05:58:04;;;;;;;;;;;;;;;;;;5023354;28;827;-58
2021/04/19 06:00:35;;;;;;;;;;;;;;;;;;5022581;28;1971;-58
2021/04/19 06:03:05;;;;;;;;;;;;;;;;;;5023213;28;814;-58
2021/04/19 06:05:39;;;;;;;;;;;;;;;;;;5023301;28;902;-58
2021/04/19 06:08:08;;;;;;;;;;;;;;;;;;5023020;28;889;-59
2021/04/19 06:10:59;;;;;;;;;;;;;;;;;;5022428;28;969;-58
2021/04/19 06:13:27;;;;;;;;;;;;;;;;;;5030891;28;1200;-61
2021/04/19 06:15:53;;;;;;;;;;;;;;;;;;5021652;28;1126;-59
2021/04/19 06:18:20;;;;;;;;;;;;;;;;;;5024269;28;964;-59
2021/04/19 06:20:47;;;;;;;;;;;;;;;;;;5028569;28;2001;-59
2021/04/19 06:23:12;;;;;;;;;;;;;;;;;;5088025;28;1205;-58
2021/04/19 06:25:38;;;;;;;;;;;;;;;;;;5088210;28;1182;-59
2021/04/19 06:28:04;;;;;;;;;;;;;;;;;;5105952;28;826;-59
2021/04/19 06:30:32;;;;;;;;;;;;;;;;;;5106030;28;830;-59
2021/04/19 06:32:58;;;;;;;;;;;;;;;;;;5106117;28;689;-58
2021/04/19 06:35:24;;;;;;;;;;;;;;;;;;5106272;28;901;-60
2021/04/19 06:37:50;;;;;;;;;;;;;;;;;;5107018;28;849;-59
2021/04/19 06:40:16;;;;;;;;;;;;;;;;;;5105945;28;1965;-58
2021/04/19 06:42:41;;;;;;;;;;;;;;;;;;5106271;28;872;-60
2021/04/19 06:45:07;;;;;;;;;;;;;;;;;;5105968;28;810;-58
2021/04/19 06:47:35;;;;;;;;;;;;;;;;;;5107959;28;833;-58
2021/04/19 06:50:00;;;;;;;;;;;;;;;;;;5110126;28;897;-59
2021/04/19 06:52:26;;;;;;;;;;;;;;;;;;5076002;28;1426;-58
2021/04/19 06:54:52;;;;;;;;;;;;;;;;;;4992874;28;921;-59
2021/04/19 06:57:19;;;;;;;;;;;;;;;;;;5007217;28;851;-59
2021/04/19 06:59:45;;;;;;;;;;;;;;;;;;5037510;28;1969;-59
2021/04/19 07:02:15;;;;;;;;;;;;;;;;;;5044437;28;1095;-58
2021/04/19 07:04:41;;;;;;;;;;;;;;;;;;5018083;28;1138;-59
2021/04/19 07:07:07;;;;;;;;;;;;;;;;;;5008510;28;1047;-59
2021/04/19 07:09:35;;;;;;;;;;;;;;;;;;5025022;28;874;-59
2021/04/19 07:12:00;;;;;;;;;;;;;;;;;;5025409;28;818;-59
2021/04/19 07:14:28;;;;;;;;;;;;;;;;;;5026223;28;837;-59
2021/04/19 07:16:53;;;;;;;;;;;;;;;;;;5078268;28;1010;-59
2021/04/19 07:19:19;;;;;;;;;;;;;;;;;;5110398;28;1894;-60
2021/04/19 07:21:45;;;;;;;;;;;;;;;;;;5095807;28;1094;-59
2021/04/19 07:24:10;;;;;;;;;;;;;;;;;;5108528;28;802;-59
2021/04/19 07:26:37;;;;;;;;;;;;;;;;;;5108777;28;822;-59
2021/04/19 07:29:02;;;;;;;;;;;;;;;;;;5108887;28;830;-59
2021/04/19 07:31:28;;;;;;;;;;;;;;;;;;5109530;28;956;-58
2021/04/19 07:33:53;;;;;;;;;;;;;;;;;;5050105;28;1078;-59
2021/04/19 07:36:28;;;;;;;;;;;;;;;;;;5006232;28;1126;-58
2021/04/19 07:38:54;;;;;;;;;;;;;;;;;;5003971;28;1246;-58
2021/04/19 07:41:19;;;;;;;;;;;;;;;;;;5005585;28;1974;-59
2021/04/19 07:43:46;;;;;;;;;;;;;;;;;;5005097;28;1091;-59
2021/04/19 07:46:14;;;;;;;;;;;;;;;;;;5004457;28;1039;-59
2021/04/19 07:48:43;;;;;;;;;;;;;;;;;;5005583;28;819;-59
2021/04/19 07:51:27;;;;;;;;;;;;;;;;;;5005066;28;882;-60
2021/04/19 07:54:19;;;;;;;;;;;;;;;;;;5006099;28;1171;-59
2021/04/19 07:57:04;;;;;;;;;;;;;;;;;;5007578;28;1012;-58
2021/04/19 07:59:31;;;;;;;;;;;;;;;;;;5005282;28;1977;-59
2021/04/19 08:01:58;;;;;;;;;;;;;;;;;;5005467;28;896;-60
2021/04/19 08:04:24;;;;;;;;;;;;;;;;;;5034557;28;1051;-58
2021/04/19 08:06:49;;;;;;;;;;;;;;;;;;5030692;28;1170;-60
2021/04/19 08:09:14;;;;;;;;;;;;;;;;;;5053474;27;1216;-59
2021/04/19 08:11:43;;;;;;;;;;;;;;;;;;5094997;28;964;-60
2021/04/19 08:14:09;;;;;;;;;;;;;;;;;;5108341;28;853;-60
2021/04/19 08:16:34;;;;;;;;;;;;;;;;;;5068375;28;1946;-60
2021/04/19 08:19:00;;;;;;;;;;;;;;;;;;4992578;28;846;-60
2021/04/19 08:21:27;;;;;;;;;;;;;;;;;;5004101;28;1973;-59
2021/04/19 08:23:53;;;;;;;;;;;;;;;;;;5003320;28;1195;-61
2021/04/19 08:26:18;;;;;;;;;;;;;;;;;;5004249;28;1244;-59
2021/04/19 08:28:50;;;;;;;;;;;;;;;;;;5003136;28;1411;-60
2021/04/19 08:31:17;;;;;;;;;;;;;;;;;;5005187;28;1297;-58
2021/04/19 08:33:43;;;;;;;;;;;;;;;;;;5021108;28;1282;-57
2021/04/19 08:36:10;;;;;;;;;;;;;;;;;;5010949;28;1325;-59
2021/04/19 08:38:35;;;;;;;;;;;;;;;;;;5002790;28;1198;-59
2021/04/19 08:41:01;;;;;;;;;;;;;;;;;;5003529;28;1973;-60
2021/04/19 08:43:27;;;;;;;;;;;;;;;;;;5002545;28;1620;-58
2021/04/19 08:45:53;;;;;;;;;;;;;;;;;;5003284;28;1167;-59
2021/04/19 08:48:18;;;;;;;;;;;;;;;;;;5004199;28;1147;-59
2021/04/19 08:50:46;;;;;;;;;;;;;;;;;;5002290;28;1266;-59
2021/04/19 08:53:14;;;;;;;;;;;;;;;;;;5000428;28;1125;-62
2021/04/19 08:55:42;;;;;;;;;;;;;;;;;;5000791;28;1389;-59
2021/04/19 08:58:11;;;;;;;;;;;;;;;;;;5001820;28;1204;-59
2021/04/19 09:00:37;;;;;;;;;;;;;;;;;;5001749;28;1902;-59
2021/04/19 09:03:03;;;;;;;;;;;;;;;;;;5000396;28;1358;-59
2021/04/19 09:05:28;;;;;;;;;;;;;;;;;;4998320;28;1511;-61
2021/04/19 09:08:01;;;;;;;;;;;;;;;;;;5001374;28;1236;-59
2021/04/19 09:10:26;;;;;;;;;;;;;;;;;;4999471;28;1233;-58
2021/04/19 09:12:52;;;;;;;;;;;;;;;;;;5000062;28;1434;-59
2021/04/19 09:15:17;;;;;;;;;;;;;;;;;;5001500;28;1216;-59
2021/04/19 09:17:57;;;;;;;;;;;;;;;;;;5000095;28;1300;-59
2021/04/19 09:20:30;;;;;;;;;;;;;;;;;;4998961;28;1971;-58
2021/04/19 09:23:15;;;;;;;;;;;;;;;;;;4999865;28;1533;-58
2021/04/19 09:25:41;;;;;;;;;;;;;;;;;;5006871;28;1240;-58
2021/04/19 09:28:06;;;;;;;;;;;;;;;;;;5017806;28;1854;-58
2021/04/19 09:30:34;;;;;;;;;;;;;;;;;;5008142;28;1297;-57
2021/04/19 09:33:02;;;;;;;;;;;;;;;;;;5004300;28;1326;-57
2021/04/19 09:35:45;;;;;;;;;;;;;;;;;;5008153;28;1151;-56
2021/04/19 09:38:10;;;;;;;;;;;;;;;;;;5002933;28;1283;-56
2021/04/19 09:40:55;;;;;;;;;;;;;;;;;;5013269;28;1922;-56
2021/04/19 09:43:39;;;;;;;;;;;;;;;;;;5051833;28;1374;-57
2021/04/19 09:46:09;;;;;;;;;;;;;;;;;;5006548;28;2192;-57
2021/04/19 09:49:03;;;;;;;;;;;;;;;;;;5001894;28;1168;-57
2021/04/19 09:51:37;;;;;;;;;;;;;;;;;;5002188;28;1370;-57
2021/04/19 09:54:08;;;;;;;;;;;;;;;;;;4995092;28;1553;-57
2021/04/19 09:56:38;;;;;;;;;;;;;;;;;;5001140;28;1566;-57
2021/04/19 09:59:05;;;;;;;;;;;;;;;;;;4999067;28;1324;-58
2021/04/19 10:01:31;;;;;;;;;;;;;;;;;;5000653;28;1956;-57
2021/04/19 10:03:57;;;;;;;;;;;;;;;;;;4998946;28;1364;-59
2021/04/19 10:06:28;;;;;;;;;;;;;;;;;;5000898;28;1180;-57
2021/04/19 10:08:56;;;;;;;;;;;;;;;;;;5010710;28;1236;-57
2021/04/19 10:11:23;;;;;;;;;;;;;;;;;;5002781;28;2277;-58
2021/04/19 10:13:49;;;;;;;;;;;;;;;;;;5002565;28;1236;-61
2021/04/19 10:16:14;;;;;;;;;;;;;;;;;;5002276;28;835;-59
2021/04/19 10:18:41;;;;;;;;;;;;;;;;;;5002480;28;771;-58
2021/04/19 10:21:07;;;;;;;;;;;;;;;;;;5002192;28;1902;-57
2021/04/19 10:23:41;;;;;;;;;;;;;;;;;;5006052;28;1144;-57
2021/04/19 10:26:07;;;;;;;;;;;;;;;;;;5004843;28;949;-58
2021/04/19 10:28:37;;;;;;;;;;;;;;;;;;5006307;28;843;-57
2021/04/19 10:31:11;;;;;;;;;;;;;;;;;;5006191;28;855;-57
2021/04/19 10:33:37;;;;;;;;;;;;;;;;;;5005777;28;826;-59
2021/04/19 10:36:16;;;;;;;;;;;;;;;;;;5048826;28;1125;-57
2021/04/19 10:38:42;;;;;;;;;;;;;;;;;;5109618;28;945;-58
2021/04/19 10:41:08;;;;;;;;;;;;;;;;;;5109420;28;1934;-57
2021/04/19 10:43:33;;;;;;;;;;;;;;;;;;5053293;28;931;-60
2021/04/19 10:45:59;;;;;;;;;;;;;;;;;;5006263;28;870;-56
2021/04/19 10:48:27;;;;;;;;;;;;;;;;;;5005850;28;806;-57
2021/04/19 10:50:55;;;;;;;;;;;;;;;;;;5005843;28;847;-59
2021/04/19 10:53:30;;;;;;;;;;;;;;;;;;5015110;28;1157;-59
2021/04/19 10:56:03;;;;;;;;;;;;;;;;;;5015437;28;1162;-58
2021/04/19 10:58:33;;;;;;;;;;;;;;;;;;5001673;28;1164;-58
2021/04/19 11:01:01;;;;;;;;;;;;;;;;;;4999776;28;1890;-59
2021/04/19 11:03:37;;;;;;;;;;;;;;;;;;5002874;28;1261;-58
2021/04/19 11:06:05;;;;;;;;;;;;;;;;;;5003875;28;1296;-57
2021/04/19 11:08:49;;;;;;;;;;;;;;;;;;5003825;28;1260;-60
2021/04/19 11:11:24;;;;;;;;;;;;;;;;;;5002319;28;1271;-60
2021/04/19 11:13:50;;;;;;;;;;;;;;;;;;5018276;28;1501;-58
2021/04/19 11:16:20;;;;;;;;;;;;;;;;;;5003701;28;1459;-60
2021/04/19 11:18:45;;;;;;;;;;;;;;;;;;5003765;28;1315;-60
2021/04/19 11:21:10;;;;;;;;;;;;;;;;;;5003330;28;1890;-60
2021/04/19 11:23:36;;;;;;;;;;;;;;;;;;5006047;28;1166;-57
2021/04/19 11:26:08;;;;;;;;;;;;;;;;;;5003355;28;1285;-58
2021/04/19 11:28:41;;;;;;;;;;;;;;;;;;5005872;28;1304;-59
2021/04/19 11:31:19;;;;;;;;;;;;;;;;;;5001953;28;1288;-57
2021/04/19 11:33:44;;;;;;;;;;;;;;;;;;5000541;28;1319;-58
2021/04/19 11:36:10;;;;;;;;;;;;;;;;;;5003367;28;1156;-58
2021/04/19 11:38:37;;;;;;;;;;;;;;;;;;4999462;28;1248;-59
2021/04/19 11:41:04;;;;;;;;;;;;;;;;;;4999213;28;1898;-59
2021/04/19 11:43:34;;;;;;;;;;;;;;;;;;5006154;28;1134;-57
2021/04/19 11:46:08;;;;;;;;;;;;;;;;;;5000303;28;1498;-58
2021/04/19 11:48:35;;;;;;;;;;;;;;;;;;4998999;28;1240;-57
2021/04/19 11:51:01;;;;;;;;;;;;;;;;;;4999209;28;1162;-57
2021/04/19 11:53:28;;;;;;;;;;;;;;;;;;5012905;28;1210;-58
2021/04/19 11:55:54;;;;;;;;;;;;;;;;;;5021593;28;811;-58
2021/04/19 11:58:20;;;;;;;;;;;;;;;;;;5011487;28;1240;-57
2021/04/19 12:00:48;;;;;;;;;;;;;;;;;;5010059;28;1894;-60
2021/04/19 12:03:13;;;;;;;;;;;;;;;;;;5006088;28;1178;-59
2021/04/19 12:05:40;;;;;;;;;;;;;;;;;;4998865;28;1537;-59
2021/04/19 12:08:05;;;;;;;;;;;;;;;;;;5007967;28;1071;-58
2021/04/19 12:10:31;;;;;;;;;;;;;;;;;;5022682;28;853;-58
2021/04/19 12:12:56;;;;;;;;;;;;;;;;;;5022871;28;834;-58
2021/04/19 12:15:22;;;;;;;;;;;;;;;;;;5022993;28;1198;-59
2021/04/19 12:17:47;;;;;;;;;;;;;;;;;;5023343;28;807;-59
2021/04/19 12:20:12;;;;;;;;;;;;;;;;;;5023705;28;1967;-58
2021/04/19 12:22:38;;;;;;;;;;;;;;;;;;5024627;28;927;-59
2021/04/19 12:25:04;;;;;;;;;;;;;;;;;;5024878;28;815;-58
2021/04/19 12:27:29;;;;;;;;;;;;;;;;;;5024604;28;882;-58
2021/04/19 12:29:55;;;;;;;;;;;;;;;;;;5024074;28;890;-59
2021/04/19 12:32:20;;;;;;;;;;;;;;;;;;5024975;28;886;-59
2021/04/19 12:34:45;;;;;;;;;;;;;;;;;;5024648;28;874;-59
2021/04/19 12:37:11;;;;;;;;;;;;;;;;;;5024717;28;810;-59
2021/04/19 12:39:36;;;;;;;;;;;;;;;;;;5024169;28;1894;-58
2021/04/19 12:42:02;;;;;;;;;;;;;;;;;;5084575;28;1389;-59
2021/04/19 12:44:28;;;;;;;;;;;;;;;;;;5107362;28;853;-59
2021/04/19 12:46:54;;;;;;;;;;;;;;;;;;5107869;28;814;-59
2021/04/19 12:49:21;;;;;;;;;;;;;;;;;;5108334;28;881;-59
2021/04/19 12:51:47;;;;;;;;;;;;;;;;;;5108080;28;810;-59
2021/04/19 12:54:13;;;;;;;;;;;;;;;;;;5042610;28;1078;-59
2021/04/19 12:56:39;;;;;;;;;;;;;;;;;;5024740;28;814;-60
2021/04/19 12:59:04;;;;;;;;;;;;;;;;;;5023981;28;819;-59
2021/04/19 13:01:29;;;;;;;;;;;;;;;;;;5024293;28;1894;-58
2021/04/19 13:03:55;;;;;;;;;;;;;;;;;;5024405;28;834;-59
2021/04/19 13:06:20;;;;;;;;;;;;;;;;;;5023367;28;1478;-60
2021/04/19 13:08:45;;;;;;;;;;;;;;;;;;5038066;28;1446;-59
2021/04/19 13:11:11;;;;;;;;;;;;;;;;;;5002338;28;1065;-59
2021/04/19 13:13:36;;;;;;;;;;;;;;;;;;5003841;28;1169;-59
2021/04/19 13:16:02;;;;;;;;;;;;;;;;;;5002202;28;1059;-59
2021/04/19 13:18:27;;;;;;;;;;;;;;;;;;5003237;28;1171;-57
2021/04/19 13:20:53;;;;;;;;;;;;;;;;;;5003329;28;1971;-59
2021/04/19 13:23:18;;;;;;;;;;;;;;;;;;5002135;28;1708;-58
2021/04/19 13:25:43;;;;;;;;;;;;;;;;;;4987136;28;1221;-60
2021/04/19 13:28:09;;;;;;;;;;;;;;;;;;5004349;28;1097;-59
2021/04/19 13:30:35;;;;;;;;;;;;;;;;;;5000769;28;1323;-58
2021/04/19 13:33:01;;;;;;;;;;;;;;;;;;5001334;28;1264;-58
2021/04/19 13:35:27;;;;;;;;;;;;;;;;;;5000605;28;1560;-58
2021/04/19 13:37:52;;;;;;;;;;;;;;;;;;5000743;28;1157;-60
2021/04/19 13:40:18;;;;;;;;;;;;;;;;;;5001447;28;1922;-57
2021/04/19 13:42:43;;;;;;;;;;;;;;;;;;5000958;28;1170;-58
2021/04/19 13:45:13;;;;;;;;;;;;;;;;;;5000986;28;1153;-58
2021/04/19 13:47:39;;;;;;;;;;;;;;;;;;5001550;28;1445;-58
2021/04/19 13:50:04;;;;;;;;;;;;;;;;;;5001194;28;1252;-57
2021/04/19 13:52:30;;;;;;;;;;;;;;;;;;5000520;28;1419;-60
2021/04/19 13:54:55;;;;;;;;;;;;;;;;;;4999230;28;1593;-61
2021/04/19 13:57:21;;;;;;;;;;;;;;;;;;5004432;28;1204;-57
2021/04/19 13:59:48;;;;;;;;;;;;;;;;;;5005346;28;1878;-59
2021/04/19 14:02:13;;;;;;;;;;;;;;;;;;5004222;28;1160;-57
2021/04/19 14:04:39;;;;;;;;;;;;;;;;;;5002977;28;1153;-59
2021/04/19 14:07:04;;;;;;;;;;;;;;;;;;5004454;28;1136;-60
2021/04/19 14:09:29;;;;;;;;;;;;;;;;;;5003575;28;1340;-61
2021/04/19 14:11:55;;;;;;;;;;;;;;;;;;5004229;28;1315;-60
2021/04/19 14:14:20;;;;;;;;;;;;;;;;;;5005318;28;1240;-58
2021/04/19 14:16:46;;;;;;;;;;;;;;;;;;5004094;28;1295;-56
2021/04/19 14:19:11;;;;;;;;;;;;;;;;;;4998360;28;1613;-57
2021/04/19 14:21:38;;;;;;;;;;;;;;;;;;5002126;28;1965;-56
2021/04/19 14:24:06;;;;;;;;;;;;;;;;;;5002423;28;1503;-57
2021/04/19 14:26:32;;;;;;;;;;;;;;;;;;5005681;28;1141;-61
2021/04/19 14:28:58;;;;;;;;;;;;;;;;;;5004242;28;1351;-59
2021/04/19 14:31:24;;;;;;;;;;;;;;;;;;5003759;28;1212;-57
2021/04/19 14:33:50;;;;;;;;;;;;;;;;;;5004083;28;1176;-60
2021/04/19 14:36:15;;;;;;;;;;;;;;;;;;5003399;28;1315;-60
2021/04/19 14:38:41;;;;;;;;;;;;;;;;;;5003094;28;1122;-58
2021/04/19 14:41:06;;;;;;;;;;;;;;;;;;5003020;28;1960;-57
2021/04/19 14:43:32;;;;;;;;;;;;;;;;;;5004106;28;1454;-57
2021/04/19 14:45:57;;;;;;;;;;;;;;;;;;5003151;28;1359;-57
2021/04/19 14:48:23;;;;;;;;;;;;;;;;;;5003354;28;1183;-57
2021/04/19 14:50:48;;;;;;;;;;;;;;;;;;5004317;28;1230;-58
2021/04/19 14:53:15;;;;;;;;;;;;;;;;;;5003111;28;1411;-58
2021/04/19 14:55:40;;;;;;;;;;;;;;;;;;5003229;28;1408;-56
2021/04/19 14:58:06;;;;;;;;;;;;;;;;;;5002580;28;1170;-57
2021/04/19 15:00:37;;;;;;;;;;;;;;;;;;5003157;28;1913;-57
2021/04/19 15:03:03;;;;;;;;;;;;;;;;;;5005709;28;1166;-57
2021/04/19 15:05:28;;;;;;;;;;;;;;;;;;5003243;28;1177;-57
2021/04/19 15:07:54;;;;;;;;;;;;;;;;;;4997473;28;1569;-58
2021/04/19 15:10:19;;;;;;;;;;;;;;;;;;5002948;28;1534;-58
2021/04/19 15:12:45;;;;;;;;;;;;;;;;;;5000445;28;1470;-57
2021/04/19 15:15:10;;;;;;;;;;;;;;;;;;5003471;28;1300;-57
2021/04/19 15:17:36;;;;;;;;;;;;;;;;;;5003372;28;1296;-58
2021/04/19 15:20:06;;;;;;;;;;;;;;;;;;5004604;28;1923;-58
2021/04/19 15:22:32;;;;;;;;;;;;;;;;;;5000008;28;1229;-59
2021/04/19 15:24:57;;;;;;;;;;;;;;;;;;5005190;28;1276;-58
2021/04/19 15:27:23;;;;;;;;;;;;;;;;;;5004701;28;1240;-58
2021/04/19 15:29:54;;;;;;;;;;;;;;;;;;5005883;28;1277;-57
2021/04/19 15:32:19;;;;;;;;;;;;;;;;;;5005449;28;1370;-57
2021/04/19 15:34:45;;;;;;;;;;;;;;;;;;5004779;28;1235;-57
2021/04/19 15:37:12;;;;;;;;;;;;;;;;;;5004276;28;1324;-57
2021/04/19 15:39:37;;;;;;;;;;;;;;;;;;5004886;28;1996;-57
2021/04/19 15:42:03;;;;;;;;;;;;;;;;;;5004273;28;1274;-57
2021/04/19 15:44:29;;;;;;;;;;;;;;;;;;5003859;28;1290;-57
2021/04/19 15:46:54;;;;;;;;;;;;;;;;;;5002553;28;1203;-57
2021/04/19 15:49:20;;;;;;;;;;;;;;;;;;5003988;28;1183;-60
2021/04/19 15:51:45;;;;;;;;;;;;;;;;;;5002865;28;1501;-57
2021/04/19 15:54:11;;;;;;;;;;;;;;;;;;5003502;28;1286;-58
2021/04/19 15:56:36;;;;;;;;;;;;;;;;;;5002965;28;1124;-57
2021/04/19 15:59:03;;;;;;;;;;;;;;;;;;5003744;28;1724;-57
2021/04/19 16:01:31;;;;;;;;;;;;;;;;;;5017572;28;1983;-58
2021/04/19 16:03:57;;;;;;;;;;;;;;;;;;5006221;28;1281;-57
2021/04/19 16:06:23;;;;;;;;;;;;;;;;;;5000938;28;1274;-58
2021/04/19 16:08:48;;;;;;;;;;;;;;;;;;5005644;28;1204;-57
2021/04/19 16:11:16;;;;;;;;;;;;;;;;;;5007145;28;1235;-62
2021/04/19 16:13:41;;;;;;;;;;;;;;;;;;5001694;28;1270;-58
2021/04/19 16:16:06;;;;;;;;;;;;;;;;;;5004070;28;1387;-60
2021/04/19 16:18:32;;;;;;;;;;;;;;;;;;5003299;28;1315;-58
2021/04/19 16:20:57;;;;;;;;;;;;;;;;;;5000624;28;1907;-58
2021/04/19 16:23:23;;;;;;;;;;;;;;;;;;5002887;28;1140;-57
2021/04/19 16:25:48;;;;;;;;;;;;;;;;;;5003040;28;1144;-57
2021/04/19 16:28:14;;;;;;;;;;;;;;;;;;5001009;28;1264;-62
2021/04/19 16:30:39;;;;;;;;;;;;;;;;;;5001992;28;1170;-57
2021/04/19 16:33:05;;;;;;;;;;;;;;;;;;5004519;28;1252;-57
2021/04/19 16:35:30;;;;;;;;;;;;;;;;;;5002805;28;1298;-67
2021/04/19 16:37:56;;;;;;;;;;;;;;;;;;5011460;28;1227;-58
2021/04/19 16:40:21;;;;;;;;;;;;;;;;;;5019025;28;1976;-59
2021/04/19 16:42:46;;;;;;;;;;;;;;;;;;5003152;28;1431;-57
2021/04/19 16:45:14;;;;;;;;;;;;;;;;;;5002728;28;1158;-57
2021/04/19 16:47:40;;;;;;;;;;;;;;;;;;5021567;28;1267;-57
2021/04/19 16:50:06;;;;;;;;;;;;;;;;;;5021293;27;1311;-57
2021/04/19 16:52:32;;;;;;;;;;;;;;;;;;5021906;28;1457;-59
2021/04/19 16:54:57;;;;;;;;;;;;;;;;;;5003377;28;1280;-57
2021/04/19 16:57:23;;;;;;;;;;;;;;;;;;5011050;28;1272;-59
2021/04/19 16:59:48;;;;;;;;;;;;;;;;;;5004974;28;1874;-57
2021/04/19 17:02:14;;;;;;;;;;;;;;;;;;5002968;28;1338;-57
2021/04/19 17:04:39;;;;;;;;;;;;;;;;;;5002001;27;1558;-58
2021/04/19 17:07:04;;;;;;;;;;;;;;;;;;5006334;28;1317;-58
2021/04/19 17:09:31;;;;;;;;;;;;;;;;;;5004490;28;1322;-58